Time;durP1;ratioP1;P1;durP2;ratioP2;P2;SDS_P1;SDS_P2;PMS_P1;PMS_P2;Temp;Humidity;BMP_temperature;BMP_pressure;BME280_temperature;BME280_humidity;BME280_pressure;Samples;Min_cycle;Max_cycle;Signal;HPM_P1;HPM_P2
2022/11/07 00:00:22;;;;;;;7.25;5.75;;;;;;;22.12;47.67;95141.56;5024203;28;20486;-63
2022/11/07 00:02:47;;;;;;;7.25;5.57;;;;;;;22.10;47.94;95149.47;5023826;28;20046;-61
2022/11/07 00:05:13;;;;;;;7.30;5.65;;;;;;;22.09;47.75;95161.59;5022167;28;20127;-63
2022/11/07 00:07:38;;;;;;;7.18;5.57;;;;;;;21.99;47.77;95138.59;5022108;28;20076;-60
2022/11/07 00:10:04;;;;;;;6.57;5.15;;;;;;;21.96;47.82;95128.72;5024721;28;20030;-63
2022/11/07 00:12:30;;;;;;;6.68;5.10;;;;;;;22.04;47.74;95146.00;5023442;28;20207;-63
2022/11/07 00:14:55;;;;;;;6.50;5.45;;;;;;;22.08;47.72;95179.13;5024412;28;20049;-63
2022/11/07 00:17:21;;;;;;;7.13;5.38;;;;;;;22.06;47.66;95143.56;5023891;28;20042;-63
2022/11/07 00:19:48;;;;;;;6.57;5.43;;;;;;;22.04;47.82;95137.84;5005963;28;20405;-63
2022/11/07 00:22:13;;;;;;;6.57;5.50;;;;;;;22.05;47.77;95146.75;5023782;28;20172;-61
2022/11/07 00:24:39;;;;;;;6.20;5.22;;;;;;;22.03;47.60;95133.66;5025338;28;20597;-64
2022/11/07 00:27:04;;;;;;;6.40;5.10;;;;;;;22.02;47.81;95132.19;5022609;28;20418;-63
2022/11/07 00:29:29;;;;;;;7.35;5.68;;;;;;;21.40;47.52;95063.28;5005528;28;20528;-63
2022/11/07 00:31:55;;;;;;;6.68;5.50;;;;;;;21.80;47.83;95109.72;5023724;28;20512;-63
2022/11/07 00:34:20;;;;;;;8.40;6.32;;;;;;;22.02;47.82;95145.78;5025185;28;20522;-61
2022/11/07 00:36:46;;;;;;;8.02;5.22;;;;;;;22.01;47.64;95173.47;5026013;28;20034;-64
2022/11/07 00:39:11;;;;;;;7.13;5.88;;;;;;;22.01;47.98;95152.44;5026108;28;20092;-63
2022/11/07 00:41:37;;;;;;;7.40;6.03;;;;;;;22.01;47.83;95144.28;5009965;28;20442;-63
2022/11/07 00:44:02;;;;;;;6.95;5.55;;;;;;;21.96;47.56;95133.44;5026313;28;20042;-63
2022/11/07 00:46:27;;;;;;;7.80;5.75;;;;;;;21.81;47.90;95122.09;5010218;28;20052;-63
2022/11/07 00:48:53;;;;;;;7.43;5.80;;;;;;;21.98;47.76;95136.38;5025751;28;20095;-63
2022/11/07 00:51:21;;;;;;;6.68;5.35;;;;;;;21.98;47.85;95145.28;5027520;28;20429;-62
2022/11/07 00:53:46;;;;;;;7.10;5.72;;;;;;;21.97;47.77;95146.53;5026238;28;20041;-63
2022/11/07 00:56:13;;;;;;;6.43;5.65;;;;;;;21.97;47.73;95151.97;5026820;28;20099;-63
2022/11/07 00:58:40;;;;;;;6.90;5.45;;;;;;;21.82;47.94;95128.25;5027328;28;20090;-63
2022/11/07 01:01:13;;;;;;;7.20;5.82;;;;;;;21.94;47.92;95163.84;5027510;28;20141;-63
2022/11/07 01:06:23;;;;;;;7.22;5.70;;;;;;;21.94;47.80;95136.66;5027250;28;20076;-63
2022/11/07 01:08:48;;;;;;;7.35;5.53;;;;;;;21.15;47.82;95012.69;5026925;28;20045;-63
2022/11/07 01:11:14;;;;;;;7.03;5.75;;;;;;;19.64;47.53;94780.75;5026148;28;20045;-64
2022/11/07 01:13:40;;;;;;;6.88;5.47;;;;;;;21.94;47.81;95125.78;5023960;28;20498;-63
2022/11/07 01:16:09;;;;;;;6.32;5.00;;;;;;;21.76;47.86;95097.63;5027282;28;20186;-62
2022/11/07 01:18:35;;;;;;;7.68;5.75;;;;;;;21.92;47.94;95117.34;5027081;28;20136;-63
2022/11/07 01:21:07;;;;;;;8.55;5.65;;;;;;;21.92;47.67;95120.06;5025438;28;20084;-62
2022/11/07 01:23:32;;;;;;;7.07;5.65;;;;;;;21.76;47.78;95086.75;5025078;28;20068;-63
2022/11/07 01:26:03;;;;;;;7.07;5.47;;;;;;;21.92;47.73;95117.34;5026809;28;20176;-64
2022/11/07 01:28:28;;;;;;;7.68;6.00;;;;;;;21.88;47.76;95109.94;5027293;28;20067;-63
2022/11/07 01:30:54;;;;;;;7.72;5.53;;;;;;;21.91;47.70;95119.84;5026690;28;20041;-63
2022/11/07 01:33:19;;;;;;;8.50;6.18;;;;;;;21.91;47.71;95108.97;5027430;28;20488;-63
2022/11/07 01:35:45;;;;;;;6.60;5.55;;;;;;;21.91;47.85;95147.03;5028178;28;20378;-62
2022/11/07 01:38:10;;;;;;;7.53;5.88;;;;;;;21.90;47.73;95113.66;5027210;28;20573;-64
2022/11/07 01:41:19;;;;;;;6.88;5.78;;;;;;;21.89;47.60;95111.44;5026945;28;20033;-63
2022/11/07 01:43:40;;;;;;;7.85;5.90;;;;;;;21.89;47.67;95116.88;5026283;28;20049;-62
2022/11/07 01:46:05;;;;;;;;;;;;;;;21.89;47.83;95116.88;5027027;28;20055;-62
2022/11/07 01:48:31;;;;;;;7.40;6.03;;;;;;;21.88;47.79;95113.41;5026133;28;19921;-63
2022/11/07 01:50:56;;;;;;;8.13;5.97;;;;;;;21.72;47.75;95107.97;5026159;28;20346;-63
2022/11/07 01:53:21;;;;;;;6.60;5.85;;;;;;;20.84;47.78;94976.16;5024622;28;20053;-63
2022/11/07 01:55:47;;;;;;;7.07;5.55;;;;;;;21.84;47.85;95120.31;5024442;28;20516;-63
2022/11/07 01:58:13;;;;;;;7.07;5.60;;;;;;;21.45;47.74;95084.28;5025027;28;20037;-62
2022/11/07 02:00:38;;;;;;;7.18;5.95;;;;;;;21.86;47.78;95161.38;5024723;28;20041;-64
2022/11/07 02:03:08;;;;;;;7.32;5.45;;;;;;;21.86;48.21;95155.94;5025045;28;20052;-62
2022/11/07 02:05:34;;;;;;;;;;;;;;;21.85;47.75;95127.25;5008536;28;20041;-62
2022/11/07 02:08:01;;;;;;;7.20;6.00;;;;;;;21.74;48.32;95106.25;5024095;28;20007;-61
2022/11/07 02:10:26;;;;;;;6.82;5.85;;;;;;;21.83;47.87;95129.75;5025091;28;20946;-63
2022/11/07 02:12:52;;;;;;;6.47;5.80;;;;;;;21.83;47.70;95129.75;5024329;28;20065;-62
2022/11/07 02:15:17;;;;;;;7.82;5.80;;;;;;;21.57;47.62;95096.66;5024348;28;20057;-63
2022/11/07 02:17:42;;;;;;;7.03;5.50;;;;;;;21.81;47.72;95132.19;5025250;28;20037;-62
2022/11/07 02:20:08;;;;;;;7.32;6.45;;;;;;;21.75;47.94;95139.59;5018679;28;20104;-64
2022/11/07 02:22:42;;;;;;;7.28;6.00;;;;;;;21.80;47.88;95134.19;5018718;28;20134;-63
2022/11/07 02:25:09;;;;;;;6.95;5.63;;;;;;;21.78;48.42;95128.50;5013236;28;20189;-63
2022/11/07 02:27:34;;;;;;;8.70;6.03;;;;;;;21.77;47.81;95132.44;5024332;28;20049;-62
2022/11/07 02:30:06;;;;;;;7.50;5.90;;;;;;;21.77;48.10;95139.88;5007336;28;20069;-62
2022/11/07 02:32:31;;;;;;;7.60;5.88;;;;;;;21.77;47.73;95135.16;5024686;28;20050;-63
2022/11/07 02:35:01;;;;;;;7.32;5.60;;;;;;;21.24;47.68;95053.16;5024690;28;20049;-63
2022/11/07 02:37:31;;;;;;;7.30;5.88;;;;;;;21.76;47.91;95130.22;5026271;28;20043;-62
2022/11/07 02:40:00;;;;;;;8.35;6.38;;;;;;;21.77;47.64;95126.28;5024006;28;20053;-62
2022/11/07 02:42:42;;;;;;;8.33;6.03;;;;;;;21.66;47.64;95112.72;5024992;28;20065;-63
2022/11/07 02:45:18;;;;;;;7.38;5.78;;;;;;;21.60;47.71;95101.84;5009638;28;20065;-63
2022/11/07 02:47:43;;;;;;;6.70;5.90;;;;;;;20.24;47.61;94900.88;5024376;28;20037;-63
2022/11/07 02:50:10;;;;;;;7.18;5.63;;;;;;;20.51;47.49;94938.13;5023526;28;20119;-62
2022/11/07 02:52:35;;;;;;;7.43;6.18;;;;;;;21.75;47.07;95128.75;5023824;28;20132;-63
2022/11/07 02:55:01;;;;;;;8.02;6.45;;;;;;;21.75;47.69;95123.31;5023410;28;20068;-63
2022/11/07 02:57:26;;;;;;;8.93;6.20;;;;;;;21.74;47.70;95128.00;5024112;28;20055;-62
2022/11/07 02:59:51;;;;;;;7.93;5.78;;;;;;;21.73;47.92;95120.34;5008698;28;20690;-63
2022/11/07 03:02:17;;;;;;;7.85;6.05;;;;;;;21.74;47.64;95127.28;5024723;28;20821;-64
2022/11/07 03:04:42;;;;;;;6.93;5.70;;;;;;;20.76;47.83;94980.59;5024330;28;20056;-60
2022/11/07 03:07:08;;;;;;;7.40;6.10;;;;;;;21.74;47.78;95132.72;5025597;28;20513;-64
2022/11/07 03:09:33;;;;;;;7.30;6.30;;;;;;;21.68;47.66;95123.81;5025484;28;20049;-63
2022/11/07 03:11:59;;;;;;;7.70;6.30;;;;;;;21.73;47.78;95131.22;5024283;28;20167;-63
2022/11/07 03:14:24;;;;;;;7.50;6.13;;;;;;;21.72;48.00;95132.44;5024592;28;20411;-64
2022/11/07 03:16:49;;;;;;;8.18;6.25;;;;;;;21.72;47.64;95132.44;5025039;28;20037;-62
2022/11/07 03:19:15;;;;;;;8.82;6.10;;;;;;;21.71;47.71;95133.69;5024911;28;20041;-63
2022/11/07 03:21:40;;;;;;;8.38;6.35;;;;;;;20.98;47.66;95063.53;5024893;28;20060;-63
2022/11/07 03:24:06;;;;;;;7.22;6.03;;;;;;;21.43;47.72;95097.59;5025294;28;20045;-63
2022/11/07 03:26:31;;;;;;;6.28;5.50;;;;;;;21.68;47.67;95134.69;5022925;28;20470;-61
2022/11/07 03:28:58;;;;;;;7.15;6.20;;;;;;;21.70;47.47;95148.50;5025008;28;20490;-63
2022/11/07 03:31:23;;;;;;;8.20;6.22;;;;;;;21.69;48.02;95147.06;5025487;28;20029;-64
2022/11/07 03:33:49;;;;;;;6.97;6.03;;;;;;;21.68;47.75;95140.13;5023727;28;20895;-63
2022/11/07 03:36:14;;;;;;;7.68;6.40;;;;;;;21.67;47.77;95158.41;5024041;28;20056;-63
2022/11/07 03:38:40;;;;;;;6.97;6.13;;;;;;;21.68;47.55;95156.44;5022782;28;20045;-64
2022/11/07 03:41:05;;;;;;;6.80;6.03;;;;;;;21.66;47.71;95158.91;5024149;28;20072;-63
2022/11/07 03:43:31;;;;;;;8.18;6.30;;;;;;;21.67;47.78;95163.09;5023587;28;20025;-63
2022/11/07 03:45:56;;;;;;;8.88;6.38;;;;;;;21.66;47.71;95158.91;5024564;28;20045;-63
2022/11/07 03:48:21;;;;;;;7.78;6.15;;;;;;;21.49;47.69;95144.56;5023874;28;20053;-63
2022/11/07 03:50:47;;;;;;;6.40;5.70;;;;;;;21.25;47.59;95102.78;5024031;28;20049;-63
2022/11/07 03:53:12;;;;;;;6.97;6.28;;;;;;;21.65;47.57;95173.72;5022873;28;20045;-61
2022/11/07 03:55:39;;;;;;;7.13;5.50;;;;;;;21.65;47.76;95179.88;5023898;28;20040;-63
2022/11/07 03:58:05;;;;;;;8.65;7.03;;;;;;;21.65;47.70;95181.88;5007030;28;20090;-63
2022/11/07 04:00:30;;;;;;;8.07;6.95;;;;;;;21.65;47.74;95184.59;5021723;28;20034;-63
2022/11/07 04:02:56;;;;;;;7.97;6.18;;;;;;;20.65;47.51;95037.53;5021721;28;20112;-63
2022/11/07 04:05:21;;;;;;;9.40;6.70;;;;;;;21.45;47.36;95160.34;5022252;28;20151;-62
2022/11/07 04:07:47;;;;;;;8.25;6.30;;;;;;;20.26;47.43;94977.03;5024021;28;20029;-63
2022/11/07 04:10:12;;;;;;;8.35;6.47;;;;;;;21.62;47.65;95185.59;5027132;28;20034;-63
2022/11/07 04:18:06;;;;;;;7.55;6.43;;;;;;;21.64;47.54;95193.97;5027564;28;20129;-63
2022/11/07 04:20:31;;;;;;;7.00;5.72;;;;;;;21.62;47.65;95186.31;5027628;28;20469;-63
2022/11/07 04:22:57;;;;;;;7.53;6.05;;;;;;;21.63;47.05;95197.94;5027477;28;20045;-62
2022/11/07 04:27:41;;;;;;;8.10;6.30;;;;;;;21.62;47.67;95185.59;5026854;28;20029;-62
2022/11/07 04:28:07;;;;;;;7.57;6.47;;;;;;;21.62;47.66;95191.00;5027822;28;20583;-63
2022/11/07 04:30:33;;;;;;;7.90;6.38;;;;;;;21.03;47.75;95100.78;5026239;28;20045;-63
2022/11/07 04:32:59;;;;;;;7.85;6.13;;;;;;;20.70;47.18;95036.81;5025974;28;20500;-60
2022/11/07 04:35:26;;;;;;;8.02;5.93;;;;;;;21.79;47.67;95199.91;5009054;28;20068;-63
2022/11/07 04:37:52;;;;;;;8.55;6.25;;;;;;;21.78;47.71;95192.97;5026227;28;20040;-64
2022/11/07 04:40:17;;;;;;;7.20;6.15;;;;;;;21.79;47.72;95194.47;5027180;28;20407;-65
2022/11/07 04:42:43;;;;;;;7.00;6.20;;;;;;;21.81;47.85;95200.91;5025943;28;20069;-66
2022/11/07 04:45:09;;;;;;;7.85;6.53;;;;;;;21.83;47.56;95194.97;5027525;28;20099;-64
2022/11/07 04:47:34;;;;;;;7.82;6.45;;;;;;;20.71;47.67;95027.47;5026973;28;20091;-62
2022/11/07 04:50:00;;;;;;;7.47;5.90;;;;;;;21.96;47.57;95204.84;5026476;28;20045;-63
2022/11/07 04:52:25;;;;;;;6.53;5.82;;;;;;;21.93;47.44;95205.13;5027345;28;20476;-62
2022/11/07 04:54:51;;;;;;;8.00;6.38;;;;;;;21.96;47.39;95231.31;5008941;28;20048;-64
2022/11/07 04:57:16;;;;;;;7.97;6.10;;;;;;;21.93;47.65;95210.56;5026889;28;20146;-64
2022/11/07 04:59:42;;;;;;;7.80;6.22;;;;;;;21.99;47.36;95214.75;5026371;28;20045;-63
2022/11/07 05:02:10;;;;;;;9.88;6.32;;;;;;;22.10;47.33;95209.28;5026889;28;20572;-65
2022/11/07 05:04:36;;;;;;;8.30;6.13;;;;;;;22.10;47.33;95209.28;5026234;28;20690;-65
2022/11/07 05:07:01;;;;;;;9.25;6.15;;;;;;;22.19;47.22;95209.03;5026542;28;20050;-65
2022/11/07 05:09:26;;;;;;;8.85;6.20;;;;;;;22.10;47.03;95209.28;5026962;28;20050;-64
2022/11/07 05:11:52;;;;;;;11.80;6.45;;;;;;;22.23;46.94;95211.56;5026731;28;20038;-66
2022/11/07 05:14:18;;;;;;;10.50;6.85;;;;;;;22.27;46.72;95201.13;5027297;28;20140;-66
2022/11/07 05:16:43;;;;;;;10.02;6.55;;;;;;;22.33;46.89;95208.06;5027931;28;20024;-68
2022/11/07 05:19:18;;;;;;;9.85;6.63;;;;;;;22.39;46.40;95208.03;5025592;28;20263;-65
2022/11/07 05:21:43;;;;;;;13.52;6.95;;;;;;;22.42;46.68;95215.97;5011462;28;20049;-66
2022/11/07 05:24:09;;;;;;;11.57;7.03;;;;;;;21.04;46.30;95001.81;5025311;28;20056;-65
2022/11/07 05:26:34;;;;;;;10.20;6.38;;;;;;;22.54;46.36;95228.28;5024256;28;20498;-62
2022/11/07 05:29:00;;;;;;;11.30;6.60;;;;;;;20.88;45.90;94982.06;5026461;28;20052;-64
2022/11/07 05:31:26;;;;;;;12.05;6.47;;;;;;;22.81;45.45;95244.56;5026329;28;20044;-62
2022/11/07 05:33:51;;;;;;;11.13;7.82;;;;;;;22.38;45.12;95245.41;5025628;28;20045;-66
2022/11/07 05:36:18;;;;;;;10.70;7.15;;;;;;;22.40;46.05;95237.47;5024772;28;20103;-66
2022/11/07 05:38:45;;;;;;;10.32;6.70;;;;;;;22.64;46.08;95245.84;5025857;28;20045;-65
2022/11/07 05:41:11;;;;;;;10.93;6.75;;;;;;;22.86;45.97;95234.91;5025974;28;20684;-69
2022/11/07 05:43:37;;;;;;;12.75;7.03;;;;;;;21.86;45.07;95074.38;5008695;28;20025;-64
2022/11/07 05:46:03;;;;;;;11.18;7.20;;;;;;;23.14;44.80;95245.22;5026661;28;20053;-65
2022/11/07 05:48:29;;;;;;;13.60;7.22;;;;;;;23.06;45.16;95271.50;5026383;28;20053;-65
2022/11/07 05:50:55;;;;;;;12.50;6.72;;;;;;;23.18;45.07;95272.94;5026206;28;20037;-63
2022/11/07 05:53:21;;;;;;;13.43;7.68;;;;;;;21.96;45.22;95079.78;5002972;28;20081;-65
2022/11/07 05:55:46;;;;;;;12.35;6.55;;;;;;;23.22;44.89;95262.50;5027516;28;20450;-67
2022/11/07 05:58:12;;;;;;;14.45;6.90;;;;;;;23.23;45.31;95264.00;5025819;28;20044;-73
2022/11/07 06:00:38;;;;;;;14.73;6.90;;;;;;;23.24;45.33;95265.47;5026196;28;20053;-66
2022/11/07 06:03:04;;;;;;;11.35;6.53;;;;;;;23.24;45.16;95259.28;5025474;28;20080;-65
2022/11/07 06:05:29;;;;;;;10.50;6.55;;;;;;;22.17;44.74;95089.13;5024595;28;20049;-69
2022/11/07 06:07:55;;;;;;;11.65;6.75;;;;;;;23.29;44.96;95267.44;5025661;28;20109;-68
2022/11/07 06:10:21;;;;;;;14.02;7.57;;;;;;;23.13;44.72;95237.56;5025667;28;20095;-65
2022/11/07 06:12:46;;;;;;;11.73;6.97;;;;;;;23.35;44.85;95270.88;5026688;28;20045;-67
2022/11/07 06:15:12;;;;;;;11.48;6.97;;;;;;;23.25;45.21;95293.47;5025125;28;20064;-63
2022/11/07 06:17:37;;;;;;;13.95;7.13;;;;;;;23.43;44.98;95277.28;5023660;28;20045;-63
2022/11/07 06:20:03;;;;;;;11.18;6.45;;;;;;;23.55;44.20;95268.53;5006588;28;20041;-64
2022/11/07 06:22:29;;;;;;;13.27;6.53;;;;;;;22.29;44.92;95096.03;5005828;28;20517;-62
2022/11/07 06:24:55;;;;;;;11.90;6.63;;;;;;;23.72;44.68;95282.13;5026015;28;20065;-62
2022/11/07 06:27:21;;;;;;;11.55;6.35;;;;;;;23.61;44.93;95276.69;5025120;28;20443;-64
2022/11/07 06:29:46;;;;;;;14.00;6.93;;;;;;;22.39;46.80;95093.78;5025439;28;20622;-66
2022/11/07 06:32:12;;;;;;;12.52;7.07;;;;;;;23.71;46.68;95291.56;5001877;28;20057;-62
2022/11/07 06:34:37;;;;;;;15.88;6.85;;;;;;;23.77;47.07;95295.72;5024899;28;20041;-65
2022/11/07 06:37:03;;;;;;;13.52;6.82;;;;;;;23.19;47.13;95209.03;5025727;28;20026;-65
2022/11/07 06:39:28;;;;;;;12.27;6.93;;;;;;;23.50;47.52;95293.13;5025533;28;20045;-63
2022/11/07 06:41:54;;;;;;;11.57;6.57;;;;;;;22.23;48.20;95086.44;5025039;28;20670;-62
2022/11/07 06:44:19;;;;;;;13.60;7.07;;;;;;;23.53;47.16;95295.56;5005953;28;20052;-63
2022/11/07 06:46:47;;;;;;;13.55;6.75;;;;;;;23.68;47.08;95308.94;5024900;28;20414;-63
2022/11/07 06:49:14;;;;;;;10.85;6.28;;;;;;;23.74;46.94;95301.47;5023818;28;20033;-63
2022/11/07 06:51:39;;;;;;;12.15;6.85;;;;;;;23.63;46.78;95306.91;5025341;28;20049;-63
2022/11/07 06:54:05;;;;;;;13.75;6.88;;;;;;;23.49;47.36;95288.91;5024493;28;20469;-64
2022/11/07 06:56:30;;;;;;;12.57;6.72;;;;;;;23.73;46.81;95316.31;5003495;28;20045;-63
2022/11/07 06:58:56;;;;;;;11.75;6.85;;;;;;;23.76;47.04;95316.06;5023649;28;20532;-62
2022/11/07 07:01:21;;;;;;;12.20;6.47;;;;;;;23.70;46.78;95300.97;5024256;28;20665;-61
2022/11/07 07:03:47;;;;;;;12.38;6.95;;;;;;;22.70;46.09;95143.88;5023144;28;20721;-61
2022/11/07 07:06:13;;;;;;;14.20;6.47;;;;;;;22.57;45.84;95127.34;5023770;28;20367;-62
2022/11/07 07:08:39;;;;;;;10.95;6.15;;;;;;;24.02;46.08;95317.16;5003069;28;20135;-61
2022/11/07 07:11:09;;;;;;;12.55;6.82;;;;;;;24.03;45.71;95307.69;5020051;28;20053;-65
2022/11/07 07:13:34;;;;;;;13.75;7.10;;;;;;;24.10;45.63;95317.34;5007690;28;20053;-65
2022/11/07 07:16:00;;;;;;;11.60;6.30;;;;;;;24.04;45.28;95320.09;5024342;28;20099;-64
2022/11/07 07:18:26;;;;;;;13.68;7.05;;;;;;;24.00;45.52;95319.63;5022569;28;20052;-66
2022/11/07 07:20:51;;;;;;;10.50;6.35;;;;;;;23.98;45.94;95318.66;5022102;28;20103;-63
2022/11/07 07:23:17;;;;;;;10.77;6.95;;;;;;;23.91;45.88;95333.56;5021708;28;20133;-60
2022/11/07 07:25:43;;;;;;;14.25;6.97;;;;;;;23.97;45.29;95353.38;5023495;28;20038;-64
2022/11/07 07:28:08;;;;;;;8.95;6.05;;;;;;;24.04;45.57;95328.28;5024053;28;20052;-63
2022/11/07 07:30:34;;;;;;;13.20;7.10;;;;;;;24.05;45.29;95327.03;5020218;28;20505;-62
2022/11/07 07:32:59;;;;;;;12.13;6.40;;;;;;;24.29;44.97;95318.94;5022589;28;20052;-61
2022/11/07 07:35:25;;;;;;;9.45;6.40;;;;;;;24.29;45.31;95318.94;5022751;28;20053;-63
2022/11/07 07:37:50;;;;;;;13.68;6.70;;;;;;;24.30;45.20;95317.66;5013112;28;20033;-63
2022/11/07 07:42:50;;;;;;;11.98;6.72;;;;;;;23.39;44.96;95184.13;4979398;28;20046;-63
2022/11/07 07:45:16;;;;;;;10.13;6.68;;;;;;;24.29;44.51;95321.66;4986615;28;20046;-62
2022/11/07 07:47:41;;;;;;;11.10;6.50;;;;;;;24.42;44.41;95327.28;4987618;28;20118;-63
2022/11/07 07:50:08;;;;;;;13.90;7.38;;;;;;;24.40;44.11;95329.78;4986309;28;20701;-63
2022/11/07 07:52:33;;;;;;;10.25;6.65;;;;;;;24.31;44.54;95321.91;4984535;28;20408;-64
2022/11/07 07:54:59;;;;;;;8.35;6.60;;;;;;;24.19;44.76;95325.94;4983968;28;20413;-64
2022/11/07 07:57:24;;;;;;;11.65;6.47;;;;;;;23.98;44.57;95308.47;4985384;28;20050;-64
2022/11/07 07:59:50;;;;;;;9.38;6.50;;;;;;;23.58;44.82;95266.81;4999518;23;20062;-62
2022/11/07 08:02:15;;;;;;;10.75;6.50;;;;;;;23.63;44.95;95279.66;4996986;28;20038;-63
2022/11/07 08:04:41;;;;;;;10.57;6.00;;;;;;;24.05;44.75;95327.03;4995991;28;20033;-63
2022/11/07 08:07:06;;;;;;;8.95;6.15;;;;;;;23.91;45.00;95333.56;5008628;28;20041;-63
2022/11/07 08:09:35;;;;;;;10.52;6.53;;;;;;;23.92;45.32;95324.13;5009188;28;20129;-61
2022/11/07 08:12:09;;;;;;;10.80;6.60;;;;;;;23.46;44.82;95259.94;5008304;28;20041;-63
2022/11/07 08:14:35;;;;;;;11.82;6.93;;;;;;;22.72;45.06;95155.00;5026526;28;20041;-61
2022/11/07 08:17:00;;;;;;;9.45;6.72;;;;;;;23.61;45.20;95318.31;5026821;28;20049;-61
2022/11/07 08:19:26;;;;;;;9.07;6.13;;;;;;;23.98;45.28;95348.66;5020506;28;20048;-61
2022/11/07 08:21:51;;;;;;;11.35;6.68;;;;;;;23.80;44.73;95322.00;5024477;28;20057;-65
2022/11/07 08:24:17;;;;;;;11.15;6.28;;;;;;;23.67;45.31;95329.25;4975704;28;20404;-61
2022/11/07 08:26:43;;;;;;;10.52;6.85;;;;;;;23.66;45.65;95325.03;5013748;28;20518;-59
2022/11/07 08:29:08;;;;;;;8.93;6.38;;;;;;;23.61;45.88;95325.78;5022862;28;20041;-61
2022/11/07 08:31:34;;;;;;;9.75;6.72;;;;;;;23.46;46.21;95325.34;5026662;28;20473;-61
2022/11/07 08:33:59;;;;;;;12.02;7.03;;;;;;;23.41;46.19;95328.84;5027182;28;20049;-65
2022/11/07 08:36:25;;;;;;;11.38;6.85;;;;;;;23.41;45.62;95312.50;5028053;28;20048;-60
2022/11/07 08:38:51;;;;;;;10.38;6.72;;;;;;;23.14;46.42;95294.25;5028526;28;20041;-62
2022/11/07 08:41:16;;;;;;;11.45;6.75;;;;;;;22.21;45.91;95154.16;5008837;28;20064;-65
2022/11/07 08:43:42;;;;;;;9.82;7.10;;;;;;;23.38;46.34;95329.84;5024053;28;20074;-63
2022/11/07 08:46:07;;;;;;;9.60;6.45;;;;;;;23.38;45.81;95324.41;4990047;28;20029;-64
2022/11/07 08:48:33;;;;;;;12.02;7.15;;;;;;;21.37;45.58;95028.94;5024661;28;20065;-62
2022/11/07 08:51:01;;;;;;;10.40;6.45;;;;;;;22.42;46.01;95202.38;5005074;28;20045;-61
2022/11/07 08:53:27;;;;;;;11.02;6.60;;;;;;;22.12;45.83;95152.44;5004936;28;20049;-61
2022/11/07 08:55:59;;;;;;;11.80;6.93;;;;;;;23.31;45.77;95333.09;5022352;28;20430;-62
2022/11/07 08:58:24;;;;;;;8.82;6.70;;;;;;;22.81;46.06;95249.25;5022534;28;20770;-61
2022/11/07 09:00:50;;;;;;;8.90;6.70;;;;;;;23.27;45.90;95329.88;5031069;28;20092;-61
2022/11/07 09:03:15;;;;;;;11.07;6.93;;;;;;;23.32;45.89;95326.41;5031335;28;20166;-62
2022/11/07 09:05:41;;;;;;;10.35;6.47;;;;;;;23.27;45.98;95335.31;5037464;28;20142;-61
2022/11/07 09:08:06;;;;;;;11.02;6.25;;;;;;;23.13;45.70;95302.94;5042743;28;20639;-61
2022/11/07 09:10:32;;;;;;;10.18;7.03;;;;;;;23.32;45.72;95342.75;5044144;28;20033;-60
2022/11/07 09:12:57;;;;;;;10.13;6.43;;;;;;;23.28;45.71;95336.81;5034013;28;20519;-63
2022/11/07 09:15:23;;;;;;;10.38;7.15;;;;;;;23.24;46.31;95341.03;5024045;28;20045;-62
2022/11/07 09:17:49;;;;;;;10.07;6.63;;;;;;;23.20;46.06;95319.50;5039900;28;20080;-61
2022/11/07 09:20:15;;;;;;;9.63;6.53;;;;;;;22.99;46.24;95299.25;5043042;28;20064;-62
2022/11/07 09:23:18;;;;;;;10.60;6.82;;;;;;;23.25;45.93;95332.34;5042954;28;20069;-61
2022/11/07 09:25:43;;;;;;;9.40;6.38;;;;;;;23.07;46.07;95302.94;5042738;28;20041;-61
2022/11/07 09:28:09;;;;;;;9.60;6.75;;;;;;;23.15;45.42;95333.88;5043331;28;20604;-59
2022/11/07 09:30:34;;;;;;;9.48;6.18;;;;;;;23.36;45.58;95328.84;5042962;28;20048;-60
2022/11/07 09:33:00;;;;;;;8.73;6.65;;;;;;;23.45;45.82;95323.84;5042737;28;20041;-60
2022/11/07 09:35:25;;;;;;;9.38;6.82;;;;;;;22.53;45.18;95175.13;5042547;28;20049;-60
2022/11/07 09:37:51;;;;;;;9.23;6.95;;;;;;;23.50;45.47;95320.38;5024665;28;20041;-60
2022/11/07 09:40:29;;;;;;;9.63;6.35;;;;;;;23.47;45.25;95315.94;5043221;28;20037;-59
2022/11/07 09:43:22;;;;;;;9.23;6.70;;;;;;;22.45;45.01;95169.44;5008616;28;20114;-60
2022/11/07 09:46:08;;;;;;;10.77;7.10;;;;;;;22.95;45.09;95244.28;5023006;28;20041;-61
2022/11/07 09:48:40;;;;;;;10.45;7.03;;;;;;;23.42;45.44;95314.72;5045373;28;20520;-60
2022/11/07 09:51:07;;;;;;;11.48;7.20;;;;;;;23.34;45.05;95317.72;5009635;28;20057;-61
2022/11/07 09:53:34;;;;;;;11.57;7.18;;;;;;;23.31;45.19;95319.47;5006701;28;20060;-60
2022/11/07 09:56:02;;;;;;;9.82;7.38;;;;;;;23.30;45.52;95317.22;5007752;28;20049;-61
2022/11/07 09:58:44;;;;;;;9.95;7.88;;;;;;;22.86;45.41;95251.97;5023178;28;20166;-60
2022/11/07 10:01:17;;;;;;;9.35;7.28;;;;;;;23.31;45.80;95316.72;4997243;28;20072;-59
2022/11/07 10:03:42;;;;;;;12.15;7.63;;;;;;;23.26;45.67;95314.78;5010500;28;20488;-62
2022/11/07 10:06:35;;;;;;;11.07;7.65;;;;;;;23.23;45.76;95312.28;5024602;28;20037;-62
2022/11/07 10:09:32;;;;;;;12.13;8.13;;;;;;;23.26;45.17;95309.31;4990791;28;20403;-61
2022/11/07 10:12:16;;;;;;;9.70;7.63;;;;;;;23.22;45.57;95306.13;4980217;28;20072;-59
2022/11/07 10:14:51;;;;;;;10.95;7.55;;;;;;;23.07;44.75;95264.81;5011632;28;20084;-59
2022/11/07 10:17:19;;;;;;;10.65;8.10;;;;;;;23.36;44.90;95294.16;5010206;28;20046;-61
2022/11/07 10:20:02;;;;;;;11.70;8.15;;;;;;;23.31;45.16;95281.31;5006857;28;20030;-58
2022/11/07 10:22:52;;;;;;;12.50;8.50;;;;;;;23.47;45.29;95288.69;5025193;28;20091;-60
2022/11/07 10:25:36;;;;;;;11.52;8.73;;;;;;;23.54;44.98;95277.22;5006284;28;20053;-61
2022/11/07 10:28:14;;;;;;;11.57;8.50;;;;;;;23.56;45.49;95288.38;5008280;28;20515;-61
2022/11/07 10:30:42;;;;;;;12.02;8.30;;;;;;;23.64;45.18;95281.19;5000082;28;20400;-61
2022/11/07 10:33:18;;;;;;;10.88;8.70;;;;;;;21.68;44.85;95009.69;5005714;28;20087;-61
2022/11/07 10:35:45;;;;;;;12.63;8.68;;;;;;;23.74;44.46;95290.56;5024326;28;20048;-61
2022/11/07 10:38:30;;;;;;;12.35;9.18;;;;;;;23.84;44.60;95278.06;5006571;28;20211;-61
2022/11/07 10:40:55;;;;;;;11.35;8.45;;;;;;;23.87;44.55;95256.00;5002032;28;20037;-61
2022/11/07 10:43:33;;;;;;;12.50;8.90;;;;;;;24.00;44.15;95262.31;4998796;28;20120;-60
2022/11/07 10:46:03;;;;;;;12.75;9.05;;;;;;;23.96;43.63;95225.66;5006150;28;20088;-60
2022/11/07 10:48:28;;;;;;;;;;;;;;;24.31;43.50;95244.75;4992515;28;20050;-60
2022/11/07 10:50:54;;;;;;;11.52;8.68;;;;;;;24.26;43.29;95254.44;5024074;28;19916;-59
2022/11/07 10:53:20;;;;;;;10.88;8.98;;;;;;;24.35;43.37;95248.69;5005690;28;20076;-62
2022/11/07 10:55:47;;;;;;;11.88;8.40;;;;;;;24.42;42.71;95245.38;5022367;28;20041;-61
2022/11/07 10:58:27;;;;;;;11.63;8.88;;;;;;;23.93;42.68;95177.56;5023559;28;20040;-61
2022/11/07 11:01:04;;;;;;;13.02;9.18;;;;;;;24.11;42.74;95210.41;5020708;28;20053;-60
2022/11/07 11:03:49;;;;;;;13.23;8.93;;;;;;;24.57;42.41;95251.22;5005273;28;20068;-62
2022/11/07 11:06:17;;;;;;;11.52;9.05;;;;;;;24.57;42.50;95245.75;5022225;28;20084;-60
2022/11/07 11:08:44;;;;;;;11.32;9.00;;;;;;;24.55;42.49;95237.34;5021925;28;20054;-59
2022/11/07 11:11:25;;;;;;;14.52;9.43;;;;;;;23.58;41.92;95075.97;5021720;28;20053;-62
2022/11/07 11:14:03;;;;;;;12.70;9.20;;;;;;;24.71;42.04;95228.22;5022591;28;20279;-61
2022/11/07 11:16:29;;;;;;;12.75;9.57;;;;;;;23.83;41.60;95080.25;5003048;28;20395;-62
2022/11/07 11:18:57;;;;;;;12.18;9.18;;;;;;;24.82;41.79;95237.78;5020069;28;20669;-61
2022/11/07 11:21:22;;;;;;;11.65;9.13;;;;;;;24.13;41.61;95098.78;5004501;28;20135;-62
2022/11/07 11:23:48;;;;;;;12.05;8.98;;;;;;;25.01;41.72;95224.94;5022650;28;20425;-61
2022/11/07 11:26:25;;;;;;;13.15;8.60;;;;;;;25.11;41.66;95223.34;5022650;28;20087;-61
2022/11/07 11:29:18;;;;;;;11.43;9.07;;;;;;;25.03;41.63;95255.22;5020830;28;20066;-62
2022/11/07 11:31:48;;;;;;;12.85;9.13;;;;;;;24.97;41.46;95221.72;5021067;28;20104;-63
2022/11/07 11:34:35;;;;;;;12.18;9.02;;;;;;;23.99;41.49;95061.72;4994254;28;20093;-65
2022/11/07 11:37:05;;;;;;;12.70;8.70;;;;;;;24.88;41.05;95194.75;5024674;28;20051;-62
2022/11/07 11:40:10;;;;;;;13.45;9.27;;;;;;;24.42;41.35;95119.81;5024390;28;20045;-60
2022/11/07 11:42:53;;;;;;;12.60;8.70;;;;;;;25.00;41.22;95212.50;4989265;28;20060;-59